Time;durP1;ratioP1;P1;durP2;ratioP2;P2;SDS_P1;SDS_P2;PMS_P1;PMS_P2;Temp;Humidity;BMP_temperature;BMP_pressure;BME280_temperature;BME280_humidity;BME280_pressure;Samples;Min_cycle;Max_cycle;Signal;HPM_P1;HPM_P2
2021/09/04 00:00:00;;;;;;;38.97;26.50;;;17.80;78.00;;;;;;4996698;28;20058;-92
2021/09/04 00:02:27;;;;;;;49.78;28.05;;;17.70;77.90;;;;;;4996412;28;20511;-92
2021/09/04 00:04:55;;;;;;;46.20;26.80;;;17.80;77.90;;;;;;5032546;28;20061;-93
2021/09/04 00:07:23;;;;;;;43.83;27.23;;;17.80;77.90;;;;;;5022116;28;20060;-92
2021/09/04 00:09:50;;;;;;;52.63;29.85;;;17.80;77.90;;;;;;5016013;28;20064;-91
2021/09/04 00:12:17;;;;;;;43.65;27.63;;;17.70;77.80;;;;;;5016215;28;20518;-92
2021/09/04 00:14:44;;;;;;;45.72;27.35;;;17.70;77.80;;;;;;5015960;28;20510;-91
2021/09/04 00:17:11;;;;;;;41.88;25.42;;;17.70;77.80;;;;;;5016078;28;20441;-95
2021/09/04 00:19:38;;;;;;;42.97;27.25;;;17.70;77.70;;;;;;5016080;28;20526;-92
2021/09/04 00:22:05;;;;;;;44.08;26.67;;;17.70;77.70;;;;;;5015815;28;20132;-93
2021/09/04 00:24:32;;;;;;;46.03;25.55;;;17.70;77.60;;;;;;5015934;28;20057;-92
2021/09/04 00:26:59;;;;;;;51.88;28.38;;;17.60;77.50;;;;;;5015802;28;20060;-92
2021/09/04 00:29:26;;;;;;;41.45;27.02;;;17.60;77.50;;;;;;5017907;28;20111;-92
2021/09/04 00:31:54;;;;;;;47.97;25.55;;;17.60;77.40;;;;;;5017170;28;20049;-92
2021/09/04 00:34:20;;;;;;;37.80;24.35;;;17.60;77.30;;;;;;5019288;28;20058;-93
2021/09/04 00:36:47;;;;;;;37.05;26.35;;;17.60;77.20;;;;;;5019478;28;20053;-93
2021/09/04 00:39:14;;;;;;;41.40;26.90;;;17.60;77.10;;;;;;5019486;28;20057;-92
2021/09/04 00:41:42;;;;;;;33.08;22.55;;;17.60;77.00;;;;;;5019837;28;20053;-92
2021/09/04 00:44:14;;;;;;;45.55;29.73;;;17.50;77.00;;;;;;4999370;28;20086;-92
2021/09/04 00:46:42;;;;;;;43.15;27.90;;;17.50;77.00;;;;;;5012167;28;20057;-94
2021/09/04 00:49:10;;;;;;;40.70;28.27;;;17.50;77.20;;;;;;4999374;28;20053;-93
2021/09/04 00:51:37;;;;;;;37.03;25.40;;;17.40;77.20;;;;;;4999499;28;20072;-92
2021/09/04 00:54:05;;;;;;;37.58;26.80;;;17.40;77.30;;;;;;4999868;28;20054;-93
2021/09/04 00:56:33;;;;;;;36.55;24.08;;;17.40;77.30;;;;;;4999564;28;20050;-92
2021/09/04 00:59:07;;;;;;;40.25;24.73;;;17.40;77.20;;;;;;4999746;28;20054;-92
2021/09/04 01:01:35;;;;;;;39.80;25.30;;;17.30;77.20;;;;;;4999214;28;20046;-92
2021/09/04 01:04:03;;;;;;;37.22;26.27;;;17.40;77.20;;;;;;5007566;28;20053;-93
2021/09/04 01:06:30;;;;;;;36.55;28.13;;;17.30;77.20;;;;;;5018914;28;20057;-91
2021/09/04 01:08:57;;;;;;;40.40;27.33;;;17.30;77.20;;;;;;5019160;28;20057;-92
2021/09/04 01:11:24;;;;;;;40.33;25.52;;;17.30;77.30;;;;;;4999146;28;20049;-91
2021/09/04 01:13:51;;;;;;;41.33;26.38;;;17.30;77.40;;;;;;4998789;28;20058;-92
2021/09/04 01:16:19;;;;;;;50.60;30.33;;;17.30;77.50;;;;;;4999414;28;20050;-92
2021/09/04 01:18:46;;;;;;;43.92;28.45;;;17.20;77.50;;;;;;4998348;28;20049;-91
2021/09/04 01:21:14;;;;;;;46.53;27.70;;;17.20;77.60;;;;;;4999044;28;20053;-91
2021/09/04 01:23:41;;;;;;;47.70;30.90;;;17.20;77.70;;;;;;4998978;28;20057;-92
2021/09/04 01:26:09;;;;;;;49.00;29.80;;;17.20;77.90;;;;;;5038553;28;20498;-92
2021/09/04 01:28:38;;;;;;;48.10;30.02;;;17.20;78.10;;;;;;5038320;28;20056;-92
2021/09/04 01:31:06;;;;;;;40.08;28.20;;;17.20;78.10;;;;;;5038481;28;20475;-92
2021/09/04 01:33:42;;;;;;;37.92;26.42;;;17.20;78.30;;;;;;5037986;28;20665;-93
2021/09/04 01:36:10;;;;;;;43.25;27.77;;;17.20;78.30;;;;;;5038244;28;20049;-92
2021/09/04 01:38:38;;;;;;;47.15;29.38;;;17.20;78.30;;;;;;5022984;28;20064;-92
2021/09/04 01:41:04;;;;;;;39.67;25.83;;;17.20;78.20;;;;;;5018191;28;20060;-92
2021/09/04 01:43:31;;;;;;;44.45;29.73;;;17.20;78.40;;;;;;5018059;28;20058;-92
2021/09/04 01:45:59;;;;;;;45.10;31.35;;;17.20;78.40;;;;;;5018507;28;20056;-92
2021/09/04 01:48:27;;;;;;;42.78;27.65;;;17.10;78.40;;;;;;5018227;28;20120;-93
2021/09/04 01:50:54;;;;;;;37.75;28.73;;;17.20;78.50;;;;;;5018522;28;20060;-91
2021/09/04 01:53:21;;;;;;;45.20;28.17;;;17.20;78.40;;;;;;5018076;28;20053;-92
2021/09/04 01:55:48;;;;;;;49.03;32.30;;;17.20;78.40;;;;;;5018192;28;20061;-92
2021/09/04 01:58:15;;;;;;;35.97;25.60;;;17.10;78.40;;;;;;5017725;28;20072;-91
2021/09/04 02:00:42;;;;;;;44.10;26.90;;;17.10;78.40;;;;;;5017744;28;20455;-91
2021/09/04 02:03:09;;;;;;;38.10;26.40;;;17.10;78.30;;;;;;5017628;28;20053;-91
2021/09/04 02:05:36;;;;;;;40.58;24.67;;;17.10;78.30;;;;;;5017766;28;20061;-92
2021/09/04 02:08:04;;;;;;;42.97;27.15;;;17.10;78.20;;;;;;5017964;28;20451;-92
2021/09/04 02:10:30;;;;;;;36.03;24.45;;;17.10;78.20;;;;;;5017554;28;20049;-92
2021/09/04 02:12:57;;;;;;;45.17;29.30;;;17.10;78.10;;;;;;5017884;28;20500;-91
2021/09/04 02:15:25;;;;;;;43.72;28.23;;;17.10;78.10;;;;;;5014219;28;20104;-91
2021/09/04 02:17:52;;;;;;;39.58;27.83;;;17.10;78.10;;;;;;5014170;28;20061;-91
2021/09/04 02:20:19;;;;;;;38.40;25.33;;;17.00;78.00;;;;;;5017696;28;20053;-92
2021/09/04 02:22:46;;;;;;;51.95;33.63;;;17.00;78.00;;;;;;5015224;28;20118;-90
2021/09/04 02:25:13;;;;;;;39.47;27.63;;;17.00;77.90;;;;;;5017181;28;20053;-92
2021/09/04 02:27:40;;;;;;;31.38;21.98;;;17.00;77.90;;;;;;5009641;28;20053;-91
2021/09/04 02:30:09;;;;;;;45.08;27.13;;;17.00;77.90;;;;;;5017397;28;20061;-91
2021/09/04 02:32:37;;;;;;;44.35;30.10;;;17.00;77.80;;;;;;5016711;28;20057;-91
2021/09/04 02:35:05;;;;;;;36.78;24.42;;;16.90;77.80;;;;;;4998307;28;20057;-90
2021/09/04 02:37:33;;;;;;;42.50;29.17;;;16.90;77.80;;;;;;5011675;28;20053;-92
2021/09/04 02:40:01;;;;;;;45.95;30.77;;;16.90;77.80;;;;;;5006839;28;20135;-91
2021/09/04 02:42:28;;;;;;;40.35;26.17;;;16.90;77.90;;;;;;4997142;28;20512;-92
2021/09/04 02:44:55;;;;;;;43.58;30.10;;;16.90;78.00;;;;;;5014293;28;20400;-91
2021/09/04 02:47:22;;;;;;;42.72;27.73;;;16.90;78.00;;;;;;5016846;28;20054;-90
2021/09/04 02:49:49;;;;;;;44.53;27.52;;;16.80;78.00;;;;;;5027411;28;20100;-90
2021/09/04 02:52:16;;;;;;;48.15;28.33;;;16.90;78.00;;;;;;5015789;28;20049;-92
2021/09/04 02:54:43;;;;;;;46.20;28.92;;;16.80;78.00;;;;;;5016717;28;20056;-91
2021/09/04 02:57:10;;;;;;;39.35;26.77;;;16.80;78.00;;;;;;5033788;28;20053;-91
2021/09/04 02:59:37;;;;;;;39.90;27.65;;;16.80;78.10;;;;;;5016278;28;20500;-92
2021/09/04 03:02:04;;;;;;;47.50;28.70;;;16.80;78.10;;;;;;5016640;28;20499;-93
2021/09/04 03:04:35;;;;;;;48.22;32.40;;;16.80;78.10;;;;;;5008308;28;20103;-92
2021/09/04 03:07:02;;;;;;;53.13;32.53;;;16.70;78.20;;;;;;5016499;28;20057;-92
2021/09/04 03:09:29;;;;;;;44.30;29.38;;;16.70;78.20;;;;;;5012121;28;20041;-92
2021/09/04 03:11:56;;;;;;;51.35;32.90;;;16.70;78.30;;;;;;4996506;28;20503;-91
2021/09/04 03:14:24;;;;;;;49.90;29.88;;;16.70;78.30;;;;;;5013635;28;20042;-91
2021/09/04 03:16:50;;;;;;;48.53;29.38;;;16.70;78.40;;;;;;5013455;28;20060;-91
2021/09/04 03:19:18;;;;;;;41.38;30.02;;;16.70;78.40;;;;;;5021044;28;20061;-92
2021/09/04 03:21:45;;;;;;;42.67;29.75;;;16.70;78.40;;;;;;4997961;28;20054;-91
2021/09/04 03:24:12;;;;;;;44.15;30.58;;;16.60;78.30;;;;;;4999671;28;20049;-91
2021/09/04 03:26:39;;;;;;;45.15;29.70;;;16.60;78.30;;;;;;5016045;28;20498;-91
2021/09/04 03:29:06;;;;;;;40.33;28.80;;;16.60;78.30;;;;;;5015858;28;20125;-92
2021/09/04 03:31:33;;;;;;;47.42;31.75;;;16.60;78.40;;;;;;5001550;28;20065;-90
2021/09/04 03:34:06;;;;;;;45.78;28.50;;;16.60;78.40;;;;;;5006079;28;20091;-91
2021/09/04 03:36:34;;;;;;;39.65;27.42;;;16.60;78.40;;;;;;5026844;28;20065;-90
2021/09/04 03:39:02;;;;;;;34.15;25.13;;;16.60;78.40;;;;;;4996098;28;20492;-90
2021/09/04 03:41:29;;;;;;;47.08;30.60;;;16.50;78.40;;;;;;5010164;28;20054;-91
2021/09/04 03:43:55;;;;;;;45.60;30.52;;;16.50;78.30;;;;;;5014720;28;20470;-90
2021/09/04 03:46:22;;;;;;;45.00;30.95;;;16.50;78.30;;;;;;5015882;28;20057;-91
2021/09/04 03:48:51;;;;;;;48.95;31.95;;;16.50;78.40;;;;;;5007887;28;20477;-90
2021/09/04 03:51:17;;;;;;;49.05;34.00;;;16.50;78.40;;;;;;5015521;28;20057;-91
2021/09/04 03:53:44;;;;;;;50.92;31.73;;;16.40;78.40;;;;;;5015561;28;20057;-90
2021/09/04 03:56:14;;;;;;;45.40;32.45;;;16.40;78.50;;;;;;5013042;28;20064;-90
2021/09/04 03:58:41;;;;;;;43.38;30.50;;;16.40;78.50;;;;;;5023789;28;20050;-90
2021/09/04 04:01:10;;;;;;;46.50;30.67;;;16.40;78.60;;;;;;5015527;28;20046;-90
2021/09/04 04:03:38;;;;;;;48.55;31.33;;;16.40;78.60;;;;;;5009168;28;20057;-91
2021/09/04 04:06:05;;;;;;;47.50;32.25;;;16.40;78.60;;;;;;5001699;28;20060;-91
2021/09/04 04:08:32;;;;;;;46.97;32.08;;;16.40;78.50;;;;;;4999891;28;20173;-90
2021/09/04 04:11:07;;;;;;;46.75;32.08;;;16.30;78.50;;;;;;5017399;28;20095;-89
2021/09/04 04:13:34;;;;;;;42.83;29.80;;;16.40;78.50;;;;;;5019014;28;20049;-90
2021/09/04 04:16:01;;;;;;;50.22;33.95;;;16.30;78.60;;;;;;5015819;28;20060;-90
2021/09/04 04:18:28;;;;;;;43.38;30.13;;;16.30;78.60;;;;;;5019165;28;20049;-92
2021/09/04 04:20:55;;;;;;;40.45;28.00;;;16.30;78.60;;;;;;5018776;28;20053;-90
2021/09/04 04:23:22;;;;;;;55.28;32.67;;;16.30;78.60;;;;;;5019238;28;20123;-91
2021/09/04 04:25:50;;;;;;;47.58;33.03;;;16.30;78.60;;;;;;5019075;28;20119;-90
2021/09/04 04:28:17;;;;;;;44.33;29.58;;;16.20;78.60;;;;;;5019054;28;20067;-90
2021/09/04 04:30:45;;;;;;;43.95;28.73;;;16.20;78.60;;;;;;5036319;28;20057;-91
2021/09/04 04:33:12;;;;;;;41.72;29.02;;;16.20;78.60;;;;;;5015314;28;20042;-90
2021/09/04 04:35:39;;;;;;;46.60;32.13;;;16.20;78.60;;;;;;4999421;28;20053;-91
2021/09/04 04:38:07;;;;;;;39.58;26.63;;;16.20;78.60;;;;;;5038102;28;20103;-90
2021/09/04 04:40:34;;;;;;;46.45;31.70;;;16.20;78.70;;;;;;5009107;28;20460;-90
2021/09/04 04:43:00;;;;;;;49.90;34.75;;;16.20;78.80;;;;;;5006590;28;20103;-89
2021/09/04 04:45:27;;;;;;;50.28;33.67;;;16.30;79.00;;;;;;5013295;28;20057;-90
2021/09/04 04:47:54;;;;;;;57.80;37.90;;;16.20;79.10;;;;;;5016114;28;20132;-90
2021/09/04 04:50:21;;;;;;;51.50;33.50;;;16.20;79.30;;;;;;5018591;28;20520;-90
2021/09/04 04:52:48;;;;;;;50.65;33.63;;;16.20;79.50;;;;;;5018127;28;20053;-90
2021/09/04 04:55:15;;;;;;;44.70;31.00;;;16.20;79.70;;;;;;5006251;28;20108;-90
2021/09/04 04:57:42;;;;;;;48.47;31.98;;;16.20;79.80;;;;;;4999132;28;20073;-91
2021/09/04 05:00:10;;;;;;;43.88;28.35;;;16.20;79.80;;;;;;4998708;28;20104;-89
2021/09/04 05:02:38;;;;;;;60.00;36.03;;;16.20;79.80;;;;;;5017766;28;20530;-91
2021/09/04 05:05:07;;;;;;;48.47;33.10;;;16.30;79.80;;;;;;5010720;28;20060;-90
2021/09/04 05:07:34;;;;;;;45.15;32.40;;;16.30;79.90;;;;;;5017533;28;20099;-89
2021/09/04 05:10:02;;;;;;;45.35;31.88;;;16.30;80.00;;;;;;5009356;28;20046;-90
2021/09/04 05:12:29;;;;;;;55.40;36.88;;;16.30;80.00;;;;;;4999178;28;20056;-90
2021/09/04 05:14:56;;;;;;;50.83;32.05;;;16.30;79.90;;;;;;5016793;28;20069;-90
2021/09/04 05:17:23;;;;;;;65.75;38.92;;;16.20;79.90;;;;;;5018094;28;20049;-90
2021/09/04 05:19:50;;;;;;;52.65;35.42;;;16.30;79.90;;;;;;5018150;28;20053;-92
2021/09/04 05:22:17;;;;;;;51.65;35.47;;;16.30;80.00;;;;;;5018112;28;20123;-90
2021/09/04 05:24:44;;;;;;;43.88;31.33;;;16.30;79.90;;;;;;5018164;28;20443;-90
2021/09/04 05:27:11;;;;;;;47.35;32.65;;;16.30;79.90;;;;;;5018274;28;20061;-91
2021/09/04 05:29:38;;;;;;;46.30;32.40;;;16.20;79.80;;;;;;5035494;28;20538;-90
2021/09/04 05:32:05;;;;;;;47.25;33.53;;;16.20;79.70;;;;;;5017742;28;20053;-92
2021/09/04 05:34:32;;;;;;;47.60;33.42;;;16.20;79.70;;;;;;5022420;28;20046;-90
2021/09/04 05:36:59;;;;;;;53.55;33.50;;;16.20;79.70;;;;;;5006261;28;20103;-90
2021/09/04 05:39:27;;;;;;;54.10;39.03;;;16.20;79.70;;;;;;5017753;28;20049;-90
2021/09/04 05:41:54;;;;;;;45.38;33.60;;;16.20;79.70;;;;;;5017483;28;20107;-89
2021/09/04 05:44:21;;;;;;;50.72;34.95;;;16.20;79.80;;;;;;5017872;28;20682;-92
2021/09/04 05:46:47;;;;;;;46.20;32.00;;;16.20;79.80;;;;;;5017859;28;20053;-90
2021/09/04 05:49:14;;;;;;;50.40;32.28;;;16.10;79.80;;;;;;5022837;28;20054;-91
2021/09/04 05:51:41;;;;;;;42.92;30.45;;;16.10;79.80;;;;;;4997837;28;20050;-91
2021/09/04 05:54:08;;;;;;;45.25;32.20;;;16.10;79.80;;;;;;5002962;28;20110;-92
2021/09/04 05:56:35;;;;;;;55.45;36.95;;;16.20;79.80;;;;;;5034944;28;20401;-91
2021/09/04 05:59:02;;;;;;;58.08;40.58;;;16.20;79.90;;;;;;5016095;28;20049;-90
2021/09/04 06:01:29;;;;;;;56.05;36.75;;;16.10;80.00;;;;;;4998148;28;20053;-90
2021/09/04 06:03:56;;;;;;;56.05;37.78;;;16.20;80.20;;;;;;4997822;28;20077;-91
2021/09/04 06:06:23;;;;;;;50.03;33.58;;;16.20;80.30;;;;;;4997932;28;20085;-91
2021/09/04 06:08:50;;;;;;;58.78;37.05;;;16.20;80.50;;;;;;4997589;28;20108;-91
2021/09/04 06:11:17;;;;;;;66.93;42.63;;;16.20;80.60;;;;;;4998190;28;20065;-91
2021/09/04 06:13:43;;;;;;;62.17;40.03;;;16.30;80.70;;;;;;4998037;28;20107;-90
2021/09/04 06:16:10;;;;;;;69.15;42.90;;;16.30;80.90;;;;;;5015141;28;20511;-91
2021/09/04 06:18:37;;;;;;;68.43;40.08;;;16.40;81.00;;;;;;4997781;28;20057;-89
2021/09/04 06:21:04;;;;;;;47.65;31.80;;;16.40;81.10;;;;;;4997180;28;20107;-92
2021/09/04 06:23:31;;;;;;;63.45;42.13;;;16.40;81.20;;;;;;5014774;28;20045;-89
2021/09/04 06:25:58;;;;;;;69.07;41.80;;;16.50;81.30;;;;;;5031102;28;20495;-90
2021/09/04 06:28:25;;;;;;;53.10;35.08;;;16.50;81.40;;;;;;5016839;28;20496;-91
2021/09/04 06:30:52;;;;;;;68.55;40.65;;;16.50;81.50;;;;;;5017230;28;20126;-91
2021/09/04 06:33:19;;;;;;;80.72;44.58;;;16.50;81.60;;;;;;5020233;28;20063;-87
2021/09/04 06:35:46;;;;;;;60.67;37.28;;;16.60;81.60;;;;;;5015525;28;20049;-87
2021/09/04 06:38:13;;;;;;;76.80;43.15;;;16.60;81.60;;;;;;5029250;28;20107;-90
2021/09/04 06:40:41;;;;;;;64.65;42.38;;;16.60;81.60;;;;;;5008511;28;20058;-90
2021/09/04 06:43:08;;;;;;;69.60;41.33;;;16.60;81.60;;;;;;5007030;28;20065;-92
2021/09/04 06:45:35;;;;;;;63.38;40.90;;;16.60;81.50;;;;;;4999847;28;20084;-93
2021/09/04 06:48:02;;;;;;;49.22;34.65;;;16.70;81.50;;;;;;5011612;28;20053;-90
2021/09/04 06:50:29;;;;;;;77.18;44.67;;;16.70;81.40;;;;;;5030488;28;20118;-92
2021/09/04 06:52:56;;;;;;;71.68;42.78;;;16.70;81.40;;;;;;5013029;28;20058;-93
2021/09/04 06:55:23;;;;;;;64.50;41.45;;;16.70;81.50;;;;;;4995368;28;20104;-92
2021/09/04 06:57:50;;;;;;;80.25;44.72;;;16.70;81.50;;;;;;4998885;28;20061;-93
2021/09/04 07:00:18;;;;;;;59.33;38.47;;;16.70;81.50;;;;;;5009516;28;20322;-91
2021/09/04 07:02:45;;;;;;;71.60;43.63;;;16.70;81.60;;;;;;4993128;28;20109;-89
2021/09/04 07:05:12;;;;;;;82.15;47.17;;;16.80;81.60;;;;;;5011954;28;20046;-93
2021/09/04 07:07:39;;;;;;;64.78;43.63;;;16.80;81.80;;;;;;5005176;28;20508;-92
2021/09/04 07:10:06;;;;;;;61.60;42.65;;;16.80;81.80;;;;;;5006937;28;20045;-93
2021/09/04 07:12:34;;;;;;;72.63;42.85;;;16.90;81.80;;;;;;4998708;28;20132;-90
2021/09/04 07:15:01;;;;;;;67.32;42.17;;;16.90;81.80;;;;;;4993993;28;20563;-92
2021/09/04 07:17:29;;;;;;;71.35;44.33;;;16.90;81.80;;;;;;5012728;28;20088;-90
2021/09/04 07:19:56;;;;;;;70.93;43.67;;;16.90;81.70;;;;;;5008401;28;20050;-90
2021/09/04 07:22:23;;;;;;;73.63;44.38;;;16.90;81.80;;;;;;4997569;28;20065;-90
2021/09/04 07:24:50;;;;;;;67.38;43.42;;;17.00;81.80;;;;;;5006355;28;20043;-93
2021/09/04 07:27:16;;;;;;;65.93;40.47;;;17.00;81.90;;;;;;5009633;28;20045;-94
2021/09/04 07:29:43;;;;;;;69.22;43.60;;;17.10;81.90;;;;;;5012824;28;20046;-94
2021/09/04 07:32:10;;;;;;;70.47;43.53;;;17.10;81.90;;;;;;4993185;28;20067;-94
2021/09/04 07:34:37;;;;;;;59.65;42.85;;;17.10;81.80;;;;;;4997059;28;20050;-93
2021/09/04 07:37:04;;;;;;;61.92;41.13;;;17.10;81.70;;;;;;4992602;28;20061;-93
2021/09/04 07:39:31;;;;;;;73.95;43.60;;;17.20;81.60;;;;;;4999259;28;20057;-92
2021/09/04 07:41:58;;;;;;;65.07;40.03;;;17.20;81.50;;;;;;5010582;28;20058;-91
2021/09/04 07:44:25;;;;;;;59.72;42.92;;;17.30;81.50;;;;;;5000471;28;20061;-91
2021/09/04 07:46:52;;;;;;;57.35;41.47;;;17.40;81.50;;;;;;5009107;28;20081;-89
2021/09/04 07:49:19;;;;;;;58.42;43.00;;;17.40;81.50;;;;;;5003874;28;20049;-91
2021/09/04 07:51:46;;;;;;;58.22;38.90;;;17.40;81.30;;;;;;5011235;28;20050;-90
2021/09/04 07:54:13;;;;;;;63.85;43.08;;;17.40;81.20;;;;;;5012217;28;20050;-90
2021/09/04 07:56:40;;;;;;;60.65;41.83;;;17.50;81.10;;;;;;4995745;28;20054;-91
2021/09/04 07:59:07;;;;;;;60.67;40.75;;;17.60;81.10;;;;;;5011818;28;20101;-93
2021/09/04 08:01:34;;;;;;;56.63;40.95;;;17.60;81.00;;;;;;5007470;28;20078;-90
2021/09/04 08:04:02;;;;;;;53.28;38.38;;;17.70;80.90;;;;;;5012494;28;20058;-93
2021/09/04 08:06:29;;;;;;;67.57;43.05;;;17.70;80.90;;;;;;5001723;28;20057;-92
2021/09/04 08:08:55;;;;;;;64.47;42.63;;;17.80;80.80;;;;;;4998037;28;20057;-93
2021/09/04 08:11:22;;;;;;;56.13;42.60;;;17.90;80.70;;;;;;5017286;28;20057;-91
2021/09/04 08:13:49;;;;;;;56.15;39.53;;;17.90;80.50;;;;;;5016541;28;20054;-91
2021/09/04 08:16:17;;;;;;;56.10;42.25;;;18.00;80.30;;;;;;5001972;28;20049;-90
2021/09/04 08:18:44;;;;;;;69.82;45.40;;;18.00;80.10;;;;;;5028094;28;20053;-91
2021/09/04 08:21:10;;;;;;;66.15;45.25;;;18.10;80.00;;;;;;5013859;28;20045;-91
2021/09/04 08:23:38;;;;;;;59.38;39.03;;;18.10;79.90;;;;;;5028299;28;20053;-92
2021/09/04 08:26:05;;;;;;;63.00;42.17;;;18.20;79.70;;;;;;5014825;28;20504;-91
2021/09/04 08:28:32;;;;;;;60.42;42.55;;;18.30;79.40;;;;;;5009064;28;20571;-91
2021/09/04 08:30:59;;;;;;;61.75;42.05;;;18.40;79.20;;;;;;5003255;28;20062;-92
2021/09/04 08:33:26;;;;;;;62.63;40.40;;;18.40;79.00;;;;;;5011956;28;20060;-93
2021/09/04 08:35:53;;;;;;;54.63;41.53;;;18.50;78.80;;;;;;5009732;28;20046;-92
2021/09/04 08:38:20;;;;;;;59.63;42.13;;;18.60;78.60;;;;;;4999797;28;20116;-91
2021/09/04 08:40:49;;;;;;;59.58;39.13;;;18.70;78.50;;;;;;5016821;28;20061;-91
2021/09/04 08:43:16;;;;;;;51.15;39.97;;;18.70;78.30;;;;;;5017160;28;20058;-89
2021/09/04 08:45:45;;;;;;;47.97;38.13;;;18.80;78.10;;;;;;5027695;28;20041;-91
2021/09/04 08:48:12;;;;;;;53.83;40.88;;;18.90;78.00;;;;;;5012895;28;20520;-91
2021/09/04 08:50:40;;;;;;;50.13;39.92;;;19.00;77.80;;;;;;5008326;28;20471;-89
2021/09/04 08:53:07;;;;;;;56.20;39.20;;;19.10;77.70;;;;;;5005395;28;20054;-89
2021/09/04 08:55:34;;;;;;;50.35;38.30;;;19.10;77.50;;;;;;5023211;28;20041;-89
2021/09/04 08:58:01;;;;;;;48.58;36.67;;;19.20;77.30;;;;;;5030737;28;20132;-88
2021/09/04 09:00:28;;;;;;;53.85;39.47;;;19.30;77.10;;;;;;5016473;28;20467;-89
2021/09/04 09:02:56;;;;;;;55.28;37.63;;;19.40;76.70;;;;;;5017223;28;20440;-88
2021/09/04 09:05:23;;;;;;;50.45;35.50;;;19.50;76.60;;;;;;5032728;28;20462;-89
2021/09/04 09:07:50;;;;;;;52.63;36.85;;;19.60;76.50;;;;;;5016273;28;20053;-88
2021/09/04 09:10:23;;;;;;;50.05;37.70;;;19.70;76.50;;;;;;5026697;28;20112;-89
2021/09/04 09:12:51;;;;;;;46.65;36.40;;;19.80;76.50;;;;;;5015135;28;20412;-88
2021/09/04 09:15:29;;;;;;;48.25;35.13;;;19.90;76.30;;;;;;5013765;28;20100;-88
2021/09/04 09:18:13;;;;;;;48.10;35.05;;;20.00;76.00;;;;;;4999104;28;20129;-88
2021/09/04 09:20:42;;;;;;;43.55;32.45;;;20.10;75.70;;;;;;5019449;28;20065;-88
2021/09/04 09:23:11;;;;;;;45.85;31.20;;;20.20;75.40;;;;;;5018917;28;20471;-88
2021/09/04 09:25:40;;;;;;;42.72;31.40;;;20.30;75.00;;;;;;5022999;28;20045;-89
2021/09/04 09:28:12;;;;;;;39.60;29.02;;;20.40;75.00;;;;;;5027558;28;20530;-89
2021/09/04 09:30:48;;;;;;;37.85;29.02;;;20.50;74.80;;;;;;5030008;28;20060;-90
2021/09/04 09:33:17;;;;;;;37.03;27.85;;;20.60;74.70;;;;;;5014567;28;20049;-89
2021/09/04 09:35:46;;;;;;;39.58;28.33;;;20.80;74.50;;;;;;5013039;28;20049;-89
2021/09/04 09:38:16;;;;;;;32.83;24.90;;;20.90;74.50;;;;;;5028241;28;20111;-91
2021/09/04 09:40:43;;;;;;;37.25;27.52;;;21.00;74.10;;;;;;5022611;28;20053;-89
2021/09/04 09:43:33;;;;;;;33.53;25.90;;;21.20;73.40;;;;;;5018799;28;20050;-89
2021/09/04 09:46:04;;;;;;;35.45;26.00;;;21.40;72.80;;;;;;5026970;28;20045;-89
2021/09/04 09:48:32;;;;;;;37.97;25.35;;;21.40;71.90;;;;;;5029815;28;20049;-88
2021/09/04 09:51:01;;;;;;;35.50;26.05;;;21.50;71.40;;;;;;5016253;28;20058;-90
2021/09/04 09:53:29;;;;;;;34.22;24.45;;;21.70;71.20;;;;;;5018270;28;20690;-89
2021/09/04 09:55:58;;;;;;;34.00;25.92;;;21.80;71.00;;;;;;5024758;28;20053;-88
2021/09/04 09:58:27;;;;;;;36.30;24.60;;;21.90;71.20;;;;;;5024367;28;20054;-87
2021/09/04 10:00:55;;;;;;;33.53;24.55;;;22.00;71.10;;;;;;5001730;28;20077;-87
2021/09/04 10:03:25;;;;;;;33.13;23.65;;;22.10;70.80;;;;;;5029464;28;20104;-88
2021/09/04 10:05:54;;;;;;;30.88;22.88;;;22.30;70.40;;;;;;5015924;28;20496;-88
2021/09/04 10:08:24;;;;;;;33.33;24.13;;;22.40;69.80;;;;;;5018375;28;20096;-88
2021/09/04 10:10:52;;;;;;;29.35;22.95;;;22.50;69.60;;;;;;5018154;28;20050;-87
2021/09/04 10:13:19;;;;;;;33.28;22.88;;;22.60;69.00;;;;;;5017805;28;20535;-87
2021/09/04 10:15:50;;;;;;;27.35;22.05;;;22.70;68.70;;;;;;5017861;28;20104;-87
2021/09/04 10:18:23;;;;;;;26.92;19.27;;;22.80;68.30;;;;;;5013958;28;20049;-86
2021/09/04 10:21:13;;;;;;;29.67;22.27;;;22.90;67.90;;;;;;5016124;28;20046;-87
2021/09/04 10:23:49;;;;;;;30.88;22.05;;;23.00;67.90;;;;;;5008235;28;20054;-87
2021/09/04 10:26:23;;;;;;;29.27;21.75;;;23.20;67.70;;;;;;5018530;28;20096;-88
2021/09/04 10:29:14;;;;;;;29.40;21.92;;;23.30;67.20;;;;;;5022999;28;20147;-87
2021/09/04 10:32:00;;;;;;;28.67;19.88;;;23.40;67.10;;;;;;5026139;28;20112;-87
2021/09/04 10:34:35;;;;;;;33.85;21.77;;;23.60;67.20;;;;;;5023268;28;20516;-87
2021/09/04 10:37:11;;;;;;;32.75;22.13;;;23.80;66.80;;;;;;5016863;28;20041;-86
2021/09/04 10:39:45;;;;;;;28.40;21.80;;;23.90;66.30;;;;;;5025974;28;20049;-86
2021/09/04 10:42:18;;;;;;;25.48;19.55;;;24.10;66.10;;;;;;5028774;28;20057;-87
2021/09/04 10:44:48;;;;;;;26.90;21.30;;;24.20;65.50;;;;;;5028638;28;20049;-87
2021/09/04 10:47:16;;;;;;;24.83;18.10;;;24.20;65.50;;;;;;5002917;28;20041;-86
2021/09/04 10:49:48;;;;;;;26.05;18.58;;;24.20;65.40;;;;;;5017381;28;20054;-86
2021/09/04 10:52:15;;;;;;;28.40;21.52;;;24.30;65.20;;;;;;5017277;28;20100;-86
2021/09/04 10:54:58;;;;;;;22.95;18.40;;;24.30;65.00;;;;;;5017145;28;20504;-86
2021/09/04 10:57:26;;;;;;;30.30;19.27;;;24.30;64.60;;;;;;5014284;28;20121;-86
2021/09/04 11:00:03;;;;;;;32.03;19.70;;;24.40;64.50;;;;;;5015316;28;20128;-87
2021/09/04 11:02:53;;;;;;;23.38;17.42;;;24.40;64.10;;;;;;5017200;28;20050;-87
2021/09/04 11:05:48;;;;;;;25.10;17.73;;;24.50;63.90;;;;;;5027251;28;20067;-85
2021/09/04 11:08:19;;;;;;;25.70;18.38;;;24.60;63.90;;;;;;5017987;28;20156;-85
2021/09/04 11:11:06;;;;;;;28.50;18.85;;;24.60;63.60;;;;;;5017082;28;20053;-87
2021/09/04 11:13:39;;;;;;;27.08;17.20;;;24.70;63.40;;;;;;5016267;28;20072;-86
2021/09/04 11:16:25;;;;;;;23.85;19.08;;;24.70;63.30;;;;;;5003958;28;20050;-87
2021/09/04 11:18:54;;;;;;;23.58;17.80;;;24.80;63.50;;;;;;5027622;28;20056;-86
2021/09/04 11:21:21;;;;;;;25.50;17.58;;;24.80;63.70;;;;;;5014016;28;20119;-86
2021/09/04 11:23:50;;;;;;;29.77;19.52;;;24.80;64.00;;;;;;5028178;28;20045;-87
2021/09/04 11:26:17;;;;;;;31.98;20.67;;;24.90;64.10;;;;;;5030092;28;20458;-87
2021/09/04 11:28:56;;;;;;;29.95;20.90;;;24.90;63.80;;;;;;5024896;28;20459;-87
2021/09/04 11:31:24;;;;;;;27.20;19.58;;;24.90;63.30;;;;;;5023080;28;20472;-87
2021/09/04 11:33:55;;;;;;;27.10;20.27;;;24.80;63.20;;;;;;5002378;28;20053;-87
2021/09/04 11:36:36;;;;;;;25.02;20.58;;;24.80;63.40;;;;;;5014150;28;20053;-87
2021/09/04 11:39:03;;;;;;;26.27;18.42;;;24.80;63.60;;;;;;5028401;28;20045;-86
2021/09/04 11:41:30;;;;;;;26.42;20.13;;;24.80;63.50;;;;;;4999213;28;20447;-86
2021/09/04 11:43:57;;;;;;;32.08;20.20;;;24.80;63.50;;;;;;5001851;28;20057;-86
2021/09/04 11:46:26;;;;;;;25.13;18.90;;;24.80;63.80;;;;;;5016628;28;20133;-87
2021/09/04 11:48:56;;;;;;;27.40;21.23;;;24.80;64.10;;;;;;5014184;28;20124;-87
2021/09/04 11:51:23;;;;;;;27.77;18.85;;;24.80;64.20;;;;;;5027699;28;20050;-86
2021/09/04 11:54:01;;;;;;;27.83;19.38;;;24.80;64.20;;;;;;5014958;28;20053;-86
2021/09/04 11:56:32;;;;;;;26.00;20.35;;;24.80;64.30;;;;;;5008094;28;20075;-85
2021/09/04 11:59:06;;;;;;;26.13;20.63;;;24.80;64.40;;;;;;5013122;28;20123;-86
2021/09/04 12:01:35;;;;;;;24.85;19.08;;;24.80;64.00;;;;;;5024817;28;20107;-85
2021/09/04 12:04:03;;;;;;;32.47;21.10;;;24.80;64.10;;;;;;5026005;28;20061;-85
2021/09/04 12:06:31;;;;;;;27.65;22.23;;;24.80;64.40;;;;;;5014129;28;20042;-85
2021/09/04 12:08:59;;;;;;;31.58;21.58;;;24.80;64.70;;;;;;5014300;28;20054;-85
2021/09/04 12:11:26;;;;;;;34.72;22.58;;;24.90;65.00;;;;;;5011733;28;20046;-85
2021/09/04 12:13:53;;;;;;;30.98;22.60;;;24.90;65.10;;;;;;5016319;28;20049;-85
2021/09/04 12:16:20;;;;;;;33.63;25.25;;;24.90;65.20;;;;;;5017951;28;20081;-85
2021/09/04 12:18:47;;;;;;;31.33;24.13;;;24.90;65.10;;;;;;5027454;28;20053;-85
2021/09/04 12:21:17;;;;;;;33.22;26.23;;;24.90;64.80;;;;;;5012242;28;20045;-85
2021/09/04 12:23:46;;;;;;;39.92;28.63;;;24.90;64.90;;;;;;5027849;28;20099;-85
2021/09/04 12:26:13;;;;;;;34.58;24.98;;;25.00;64.70;;;;;;5028369;28;20049;-84
2021/09/04 12:28:40;;;;;;;36.03;27.65;;;25.00;64.50;;;;;;5023910;28;20482;-84
2021/09/04 12:31:10;;;;;;;33.83;24.95;;;25.00;64.40;;;;;;5019848;28;20095;-84
2021/09/04 12:33:49;;;;;;;36.08;26.67;;;24.90;64.80;;;;;;5016848;28;20084;-84